createdAt,value
2018-06-19T00:00:30.514Z,61.21
2018-06-19T00:02:58.513Z,61.59
2018-06-19T00:05:29.561Z,61.41
2018-06-19T00:07:58.201Z,60.82
2018-06-19T00:10:26.174Z,60.79
2018-06-19T00:12:54.409Z,61.24
2018-06-19T00:15:22.257Z,61.36
2018-06-19T00:17:53.825Z,61.71
2018-06-19T00:20:21.701Z,61.59
2018-06-19T00:22:49.590Z,61.43
2018-06-19T00:25:17.445Z,60.86
2018-06-19T00:27:45.245Z,61.39
2018-06-19T00:30:13.026Z,61.31
2018-06-19T00:32:40.934Z,60.64
2018-06-19T00:35:08.769Z,61.36
2018-06-19T00:37:36.527Z,61.36
2018-06-19T00:40:04.314Z,60.76
2018-06-19T00:42:32.153Z,61.19
2018-06-19T00:45:00.012Z,61.16
2018-06-19T00:47:27.842Z,60.93
2018-06-19T00:49:56.543Z,60.60
2018-06-19T00:52:24.357Z,60.85
2018-06-19T00:54:52.137Z,60.05
2018-06-19T00:57:20.188Z,60.79
2018-06-19T00:59:47.966Z,61.31
2018-06-19T01:02:15.769Z,61.02
2018-06-19T01:04:44.200Z,61.05
2018-06-19T01:07:11.922Z,60.89
2018-06-19T01:09:39.757Z,60.47
2018-06-19T01:12:07.409Z,61.13
2018-06-19T01:14:35.472Z,60.72
2018-06-19T01:17:03.322Z,61.12
2018-06-19T01:19:31.172Z,61.48
2018-06-19T01:21:58.999Z,61.79
2018-06-19T01:24:26.844Z,61.02
2018-06-19T01:26:54.570Z,61.64
2018-06-19T01:29:22.382Z,60.96
2018-06-19T01:31:50.128Z,61.50
2018-06-19T01:34:17.918Z,61.43
2018-06-19T01:36:45.657Z,61.41
2018-06-19T01:39:13.514Z,61.43
2018-06-19T01:41:41.399Z,60.88
2018-06-19T01:44:09.098Z,60.68
2018-06-19T01:46:36.923Z,60.53
2018-06-19T01:49:04.705Z,60.51
2018-06-19T01:51:32.461Z,61.21
2018-06-19T01:54:00.224Z,60.56
2018-06-19T01:56:27.926Z,60.51
2018-06-19T01:58:55.932Z,60.94
2018-06-19T02:01:23.861Z,60.46
2018-06-19T02:03:51.621Z,60.56
2018-06-19T02:06:19.536Z,60.78
2018-06-19T02:08:47.353Z,60.25
2018-06-19T02:11:15.231Z,59.93
2018-06-19T02:13:43.055Z,60.59
2018-06-19T02:16:10.877Z,59.90
2018-06-19T02:18:38.636Z,59.91
2018-06-19T02:21:06.409Z,60.48
2018-06-19T02:23:34.136Z,60.47
2018-06-19T02:26:02.283Z,60.55
2018-06-19T02:28:30.067Z,60.74
2018-06-19T02:30:57.912Z,60.35
2018-06-19T02:33:25.759Z,60.24
2018-06-19T02:35:53.564Z,60.69
2018-06-19T02:38:21.343Z,60.05
2018-06-19T02:40:49.114Z,59.74
2018-06-19T02:43:17.004Z,59.82
2018-06-19T02:45:44.881Z,59.82
2018-06-19T02:48:12.625Z,60.43
2018-06-19T02:50:40.452Z,59.71
2018-06-19T02:53:08.207Z,59.77
2018-06-19T02:55:35.926Z,59.81
2018-06-19T02:58:03.711Z,59.72
2018-06-19T03:00:31.526Z,60.48
2018-06-19T03:02:59.516Z,60.28
2018-06-19T03:05:27.319Z,59.73
2018-06-19T03:07:55.277Z,59.39
2018-06-19T03:10:23.081Z,59.42
2018-06-19T03:12:51.446Z,59.03
2018-06-19T03:15:19.619Z,59.00
2018-06-19T03:17:47.450Z,59.29
2018-06-19T03:20:16.021Z,59.30
2018-06-19T03:22:43.935Z,59.24
2018-06-19T03:25:12.464Z,58.56
2018-06-19T03:27:40.205Z,59.52
2018-06-19T03:30:08.122Z,59.59
2018-06-19T03:32:35.853Z,59.04
2018-06-19T03:35:03.601Z,59.56
2018-06-19T03:37:31.425Z,58.93
2018-06-19T03:39:59.278Z,59.48
2018-06-19T03:42:27.118Z,59.05
2018-06-19T03:44:55.121Z,59.23
2018-06-19T03:47:23.014Z,58.96
2018-06-19T03:49:50.974Z,59.72
2018-06-19T03:52:18.913Z,59.73
2018-06-19T03:54:46.687Z,59.16
2018-06-19T03:57:14.639Z,58.85
2018-06-19T03:59:42.468Z,59.02
2018-06-19T04:02:10.590Z,59.33
2018-06-19T04:04:38.456Z,59.42
2018-06-19T04:07:06.433Z,59.07
2018-06-19T04:09:34.196Z,59.42
2018-06-19T04:12:01.905Z,59.38
2018-06-19T04:14:29.760Z,59.57
2018-06-19T04:16:57.465Z,59.79
2018-06-19T04:19:25.785Z,59.30
2018-06-19T04:21:53.550Z,58.89
2018-06-19T04:24:21.364Z,58.53
2018-06-19T04:26:49.233Z,58.45
2018-06-19T04:29:16.978Z,58.44
2018-06-19T04:31:45.536Z,59.10
2018-06-19T04:34:13.340Z,58.39
2018-06-19T04:36:41.150Z,58.43
2018-06-19T04:39:10.908Z,58.17
2018-06-19T04:41:38.755Z,58.48
2018-06-19T04:44:06.570Z,58.50
2018-06-19T04:46:34.320Z,59.34
2018-06-19T04:49:02.006Z,59.13
2018-06-19T04:51:30.002Z,59.57
2018-06-19T04:53:57.870Z,58.81
2018-06-19T04:56:26.006Z,59.21
2018-06-19T04:58:54.017Z,58.93
2018-06-19T05:01:21.905Z,59.72
2018-06-19T05:03:49.872Z,58.56
2018-06-19T05:06:17.940Z,58.35
2018-06-19T05:08:45.764Z,58.88
2018-06-19T05:11:13.793Z,58.35
2018-06-19T05:13:42.189Z,58.97
2018-06-19T05:16:10.136Z,58.88
2018-06-19T05:18:37.931Z,59.02
2018-06-19T05:21:05.774Z,58.97
2018-06-19T05:23:33.610Z,58.93
2018-06-19T05:26:01.587Z,58.40
2018-06-19T05:28:29.498Z,58.75
2018-06-19T05:30:57.332Z,58.58
2018-06-19T05:33:25.709Z,58.01
2018-06-19T05:35:53.610Z,58.75
2018-06-19T05:38:21.346Z,58.09
2018-06-19T05:40:49.337Z,58.61
2018-06-19T05:43:17.251Z,58.82
2018-06-19T05:45:45.001Z,58.68
2018-06-19T05:48:12.900Z,58.30
2018-06-19T05:50:40.732Z,58.15
2018-06-19T05:53:08.572Z,58.60
2018-06-19T05:55:36.422Z,57.81
2018-06-19T05:58:06.409Z,57.94
2018-06-19T06:00:34.238Z,58.66
2018-06-19T06:03:02.453Z,58.00
2018-06-19T06:05:30.363Z,58.64
2018-06-19T06:07:58.278Z,58.02
2018-06-19T06:10:26.061Z,57.81
2018-06-19T06:12:53.978Z,58.36
2018-06-19T06:15:21.709Z,57.63
2018-06-19T06:17:49.539Z,58.59
2018-06-19T06:20:17.310Z,58.08
2018-06-19T06:22:45.083Z,57.93
2018-06-19T06:25:12.910Z,57.42
2018-06-19T06:27:40.733Z,57.79
2018-06-19T06:30:08.687Z,57.29
2018-06-19T06:32:36.463Z,57.15
2018-06-19T06:35:04.282Z,57.57
2018-06-19T06:37:32.131Z,57.66
2018-06-19T06:39:59.918Z,56.85
2018-06-19T06:42:27.700Z,56.82
2018-06-19T06:44:55.563Z,56.90
2018-06-19T06:47:23.429Z,57.48
2018-06-19T06:49:51.412Z,56.80
2018-06-19T06:52:19.216Z,57.42
2018-06-19T06:54:46.992Z,57.71
2018-06-19T06:57:14.778Z,57.39
2018-06-19T06:59:42.516Z,57.27
2018-06-19T07:02:10.307Z,56.50
2018-06-19T07:04:38.230Z,56.39
2018-06-19T07:07:05.997Z,56.44
2018-06-19T07:09:33.708Z,56.52
2018-06-19T07:12:01.505Z,57.11
2018-06-19T07:14:29.611Z,56.30
2018-06-19T07:16:57.365Z,56.06
2018-06-19T07:19:25.338Z,56.68
2018-06-19T07:21:53.117Z,56.70
2018-06-19T07:24:20.929Z,56.49
2018-06-19T07:26:48.673Z,56.67
2018-06-19T07:29:16.489Z,56.39
2018-06-19T07:31:44.338Z,56.27
2018-06-19T07:34:12.093Z,56.33
2018-06-19T07:36:39.844Z,56.32
2018-06-19T07:39:08.690Z,56.93
2018-06-19T07:41:36.544Z,56.47
2018-06-19T07:44:04.456Z,57.15
2018-06-19T07:46:32.170Z,56.66
2018-06-19T07:48:59.981Z,56.76
2018-06-19T07:51:27.742Z,57.07
2018-06-19T07:53:59.638Z,57.96
2018-06-19T07:56:27.663Z,57.79
2018-06-19T07:58:56.004Z,57.20
2018-06-19T08:01:23.903Z,57.26
2018-06-19T08:03:51.737Z,57.43
2018-06-19T08:06:20.006Z,58.31
2018-06-19T08:08:47.836Z,57.26
2018-06-19T08:11:15.537Z,57.23
2018-06-19T08:13:43.256Z,57.43
2018-06-19T08:16:11.108Z,57.80
2018-06-19T08:18:38.868Z,57.11
2018-06-19T08:21:08.383Z,58.56
2018-06-19T08:23:36.325Z,58.88
2018-06-19T08:26:04.105Z,58.65
2018-06-19T08:28:31.878Z,59.43
2018-06-19T08:30:59.634Z,59.45
2018-06-19T08:33:27.481Z,58.73
2018-06-19T08:35:55.169Z,59.28
2018-06-19T08:38:22.953Z,59.13
2018-06-19T08:40:50.806Z,58.52
2018-06-19T08:43:18.487Z,58.53
2018-06-19T08:45:46.290Z,59.08
2018-06-19T08:48:14.088Z,58.44
2018-06-19T08:50:42.006Z,59.02
2018-06-19T08:53:09.788Z,58.98
2018-06-19T08:55:37.626Z,58.51
2018-06-19T08:58:05.474Z,58.62
2018-06-19T09:00:33.269Z,59.07
2018-06-19T09:03:01.138Z,58.25
2018-06-19T09:05:29.582Z,58.22
2018-06-19T09:07:57.562Z,58.89
2018-06-19T09:10:25.719Z,58.26
2018-06-19T09:12:53.728Z,58.93
2018-06-19T09:15:21.500Z,58.95
2018-06-19T09:17:49.365Z,58.54
2018-06-19T09:20:17.304Z,58.81
2018-06-19T09:22:45.218Z,58.74
2018-06-19T09:25:12.994Z,57.98
2018-06-19T09:27:40.725Z,58.54
2018-06-19T09:30:08.514Z,58.40
2018-06-19T09:32:36.786Z,57.76
2018-06-19T09:35:04.780Z,57.48
2018-06-19T09:37:32.597Z,57.24
2018-06-19T09:40:00.404Z,57.52
2018-06-19T09:42:32.029Z,57.62
2018-06-19T09:45:00.319Z,57.35
2018-06-19T09:47:28.343Z,57.14
2018-06-19T09:49:59.163Z,58.02
2018-06-19T09:52:27.232Z,58.09
2018-06-19T09:54:54.998Z,57.35
2018-06-19T09:57:22.734Z,57.74
2018-06-19T09:59:50.593Z,57.41
2018-06-19T10:02:18.587Z,58.01
2018-06-19T10:04:46.651Z,57.67
2018-06-19T10:07:19.077Z,57.11
2018-06-19T10:09:47.117Z,57.53
2018-06-19T10:12:15.143Z,57.37
2018-06-19T10:14:42.769Z,57.24
2018-06-19T10:17:10.655Z,57.81
2018-06-19T10:19:38.495Z,57.95
2018-06-19T10:22:06.723Z,57.64
2018-06-19T10:24:36.626Z,58.35
2018-06-19T10:27:04.651Z,58.27
2018-06-19T10:29:32.607Z,57.58
2018-06-19T10:32:03.770Z,57.42
2018-06-19T10:34:31.768Z,57.62
2018-06-19T10:37:00.107Z,56.80
2018-06-19T10:39:28.154Z,56.92
2018-06-19T10:41:56.055Z,56.97
2018-06-19T10:44:23.903Z,56.97
2018-06-19T10:46:51.697Z,57.10
2018-06-19T10:49:19.948Z,56.94
2018-06-19T10:51:47.739Z,57.16
2018-06-19T10:54:15.588Z,57.66
2018-06-19T10:56:43.373Z,57.29
2018-06-19T10:59:11.131Z,56.53
2018-06-19T11:01:38.877Z,57.19
2018-06-19T11:04:06.737Z,57.31
2018-06-19T11:06:34.492Z,56.66
2018-06-19T11:09:02.327Z,56.90
2018-06-19T11:11:30.114Z,57.69
2018-06-19T11:13:58.129Z,57.09
2018-06-19T11:16:25.919Z,57.00
2018-06-19T11:21:20.798Z,56.73
2018-06-19T11:23:48.563Z,56.65
2018-06-19T11:26:16.345Z,57.17
2018-06-19T11:28:44.156Z,56.28
2018-06-19T11:31:12.224Z,56.60
2018-06-19T11:33:40.044Z,56.76
2018-06-19T11:36:07.780Z,56.77
2018-06-19T11:38:35.948Z,57.03
2018-06-19T11:41:03.950Z,56.53
2018-06-19T11:43:31.801Z,56.67
2018-06-19T11:45:59.834Z,56.14
2018-06-19T11:48:27.795Z,56.40
2018-06-19T11:50:55.624Z,56.22
2018-06-19T11:53:23.550Z,56.38
2018-06-19T11:55:51.232Z,55.24
2018-06-19T11:58:19.158Z,55.84
2018-06-19T12:00:47.220Z,54.89
2018-06-19T12:03:15.007Z,55.67
2018-06-19T12:05:42.834Z,55.60
2018-06-19T12:08:10.757Z,54.80
2018-06-19T12:10:38.568Z,55.22
2018-06-19T12:13:06.515Z,55.79
2018-06-19T12:15:34.416Z,55.82
2018-06-19T12:18:02.268Z,55.01
2018-06-19T12:20:30.280Z,55.35
2018-06-19T12:22:58.066Z,55.41
2018-06-19T12:25:25.898Z,54.95
2018-06-19T12:27:53.820Z,55.54
2018-06-19T12:30:22.710Z,55.28
2018-06-19T12:32:50.570Z,54.48
2018-06-19T12:35:24.489Z,54.42
2018-06-19T12:37:56.796Z,54.94
2018-06-19T12:40:24.610Z,54.86
2018-06-19T12:42:52.595Z,53.69
2018-06-19T12:45:20.454Z,53.66
2018-06-19T12:47:48.453Z,53.73
2018-06-19T12:50:38.717Z,53.98
2018-06-19T12:53:18.517Z,53.45
2018-06-19T12:55:58.116Z,53.13
2018-06-19T12:58:25.945Z,53.71
2018-06-19T13:00:53.727Z,53.45
2018-06-19T13:03:33.273Z,53.39
2018-06-19T13:06:12.234Z,53.11
2018-06-19T13:08:39.952Z,52.96
2018-06-19T13:11:08.340Z,53.43
2018-06-19T13:13:47.178Z,53.10
2018-06-19T13:16:26.337Z,53.22
2018-06-19T13:19:05.525Z,53.05
2018-06-19T13:21:33.454Z,53.08
2018-06-19T13:24:01.310Z,52.89
2018-06-19T13:26:29.164Z,52.90
2018-06-19T13:30:10.148Z,51.98
2018-06-19T13:32:38.515Z,52.55
2018-06-19T13:35:06.431Z,52.55
2018-06-19T13:37:34.287Z,52.29
2018-06-19T13:41:13.138Z,52.33
2018-06-19T13:43:52.072Z,52.67
2018-06-19T13:46:19.930Z,53.14
2018-06-19T13:48:48.178Z,52.49
2018-06-19T13:51:15.932Z,52.39
2018-06-19T13:53:44.183Z,53.13
2018-06-19T13:57:36.457Z,53.12
2018-06-19T14:00:06.883Z,52.34
2018-06-19T14:02:34.736Z,53.07
2018-06-19T14:05:03.003Z,52.31
2018-06-19T14:07:33.111Z,52.42
2018-06-19T14:10:19.166Z,52.31
2018-06-19T14:12:58.117Z,52.72
2018-06-19T14:15:26.822Z,52.48
2018-06-19T14:17:54.626Z,52.12
2018-06-19T14:20:22.434Z,52.32
2018-06-19T14:22:50.177Z,52.45
2018-06-19T14:25:18.747Z,51.97
2018-06-19T14:27:46.446Z,52.46
2018-06-19T14:30:14.272Z,51.71
2018-06-19T14:32:42.857Z,50.81
2018-06-19T14:35:10.968Z,47.43
2018-06-19T14:37:38.729Z,44.15
2018-06-19T14:40:06.600Z,41.49
2018-06-19T14:42:34.581Z,40.52
2018-06-19T14:45:02.424Z,39.34
2018-06-19T14:47:30.246Z,38.48
2018-06-19T14:49:59.128Z,38.46
2018-06-19T14:52:27.029Z,37.84
2018-06-19T14:54:54.750Z,38.15
2018-06-19T14:57:22.673Z,37.71
2018-06-19T14:59:50.594Z,39.19
2018-06-19T15:02:18.442Z,42.15
2018-06-19T15:04:46.211Z,44.79
2018-06-19T15:07:14.045Z,46.27
2018-06-19T15:09:42.087Z,46.38
2018-06-19T15:12:10.068Z,47.24
2018-06-19T15:14:37.846Z,47.54
2018-06-19T15:17:05.733Z,47.34
2018-06-19T15:19:33.494Z,47.87
2018-06-19T15:22:01.183Z,48.66
2018-06-19T15:24:28.978Z,47.87
2018-06-19T15:26:56.833Z,48.41
2018-06-19T15:29:24.609Z,47.82
2018-06-19T15:31:52.467Z,47.78
2018-06-19T15:34:20.436Z,48.23
2018-06-19T15:36:48.448Z,47.78
2018-06-19T15:39:16.086Z,47.85
2018-06-19T15:41:44.168Z,47.27
2018-06-19T15:44:11.950Z,47.52
2018-06-19T15:46:39.790Z,48.17
2018-06-19T15:49:07.666Z,47.93
2018-06-19T15:51:35.499Z,46.93
2018-06-19T15:54:03.471Z,46.44
2018-06-19T15:56:31.859Z,46.99
2018-06-19T15:58:59.651Z,46.72
2018-06-19T16:01:27.470Z,46.04
2018-06-19T16:03:55.153Z,46.92
2018-06-19T16:06:23.178Z,46.41
2018-06-19T16:08:51.012Z,46.63
2018-06-19T16:11:18.814Z,46.17
2018-06-19T16:13:46.589Z,45.71
2018-06-19T16:16:14.460Z,45.76
2018-06-19T16:18:42.298Z,45.18
2018-06-19T16:21:10.031Z,43.94
2018-06-19T16:23:37.770Z,44.06
2018-06-19T16:26:05.659Z,45.00
2018-06-19T16:28:33.515Z,44.44
2018-06-19T16:31:01.543Z,44.49
2018-06-19T16:33:29.422Z,44.56
2018-06-19T16:35:57.200Z,45.46
2018-06-19T16:38:25.218Z,44.37
2018-06-19T16:40:53.053Z,44.48
2018-06-19T16:43:20.801Z,44.86
2018-06-19T16:45:48.689Z,45.05
2018-06-19T16:48:16.578Z,45.31
2018-06-19T16:50:44.582Z,43.98
2018-06-19T16:53:12.274Z,44.50
2018-06-19T16:55:40.127Z,44.14
2018-06-19T16:58:07.949Z,43.21
2018-06-19T17:00:35.791Z,42.71
2018-06-19T17:03:03.761Z,42.38
2018-06-19T17:05:31.507Z,42.42
2018-06-19T17:07:59.564Z,42.40
2018-06-19T17:10:27.319Z,42.45
2018-06-19T17:12:55.037Z,42.43
2018-06-19T17:15:22.852Z,42.45
2018-06-19T17:17:50.658Z,42.77
2018-06-19T17:20:18.443Z,42.30
2018-06-19T17:22:46.227Z,42.12
2018-06-19T17:25:14.155Z,42.19
2018-06-19T17:27:42.503Z,41.93
2018-06-19T17:30:10.373Z,42.32
2018-06-19T17:32:38.168Z,41.58
2018-06-19T17:35:05.969Z,41.50
2018-06-19T17:37:33.949Z,42.19
2018-06-19T17:40:01.703Z,42.24
2018-06-19T17:42:29.520Z,41.95
2018-06-19T17:44:57.273Z,41.30
2018-06-19T17:47:24.973Z,41.52
2018-06-19T17:49:52.987Z,41.97
2018-06-19T17:52:20.726Z,42.01
2018-06-19T17:54:48.526Z,41.90
2018-06-19T17:57:16.277Z,41.89
2018-06-19T17:59:44.057Z,41.61
2018-06-19T18:02:11.768Z,42.13
2018-06-19T18:04:39.936Z,41.64
2018-06-19T18:07:07.710Z,41.05
2018-06-19T18:09:35.503Z,42.26
2018-06-19T18:12:03.129Z,42.34
2018-06-19T18:14:30.791Z,41.37
2018-06-19T18:16:58.686Z,41.60
2018-06-19T18:19:26.613Z,41.83
2018-06-19T18:21:54.583Z,41.17
2018-06-19T18:24:22.254Z,40.93
2018-06-19T18:26:50.027Z,41.00
2018-06-19T18:29:17.868Z,41.58
2018-06-19T18:31:45.548Z,41.95
2018-06-19T18:34:13.317Z,41.77
2018-06-19T18:36:41.155Z,41.55
2018-06-19T18:39:09.891Z,41.52
2018-06-19T18:41:37.738Z,42.45
2018-06-19T18:44:05.500Z,42.82
2018-06-19T18:46:33.279Z,42.56
2018-06-19T18:49:01.072Z,43.22
2018-06-19T18:51:28.722Z,43.31
2018-06-19T18:53:56.782Z,42.79
2018-06-19T18:56:24.544Z,44.01
2018-06-19T18:58:52.385Z,44.38
2018-06-19T19:01:20.296Z,45.13
2018-06-19T19:03:48.038Z,44.61
2018-06-19T19:06:15.957Z,43.92
2018-06-19T19:08:43.778Z,44.16
2018-06-19T19:11:11.530Z,44.75
2018-06-19T19:13:39.537Z,43.80
2018-06-19T19:16:12.881Z,44.28
2018-06-19T19:18:46.110Z,44.51
2018-06-19T19:21:13.877Z,44.38
2018-06-19T19:23:41.705Z,44.62
2018-06-19T19:26:09.544Z,45.33
2018-06-19T19:28:42.861Z,44.58
2018-06-19T19:31:10.711Z,45.87
2018-06-19T19:33:38.546Z,46.17
2018-06-19T19:36:06.323Z,45.94
2018-06-19T19:38:39.708Z,46.20
2018-06-19T19:41:07.489Z,45.25
2018-06-19T19:43:35.312Z,45.98
2018-06-19T19:46:03.017Z,45.30
2018-06-19T19:48:36.314Z,46.45
2018-06-19T19:51:04.157Z,46.08
2018-06-19T19:53:32.044Z,46.58
2018-06-19T19:56:05.212Z,46.70
2018-06-19T19:58:38.610Z,46.66
2018-06-19T20:01:07.272Z,46.78
2018-06-19T20:03:35.056Z,46.83
2018-06-19T20:06:03.164Z,46.97
2018-06-19T20:08:30.877Z,46.49
2018-06-19T20:10:58.646Z,47.11
2018-06-19T20:13:26.573Z,47.36
2018-06-19T20:15:54.239Z,47.06
2018-06-19T20:18:22.056Z,47.64
2018-06-19T20:20:49.924Z,46.90
2018-06-19T20:23:17.731Z,47.07
2018-06-19T20:25:45.500Z,47.13
2018-06-19T20:28:13.419Z,47.06
2018-06-19T20:30:41.077Z,47.22
2018-06-19T20:33:08.792Z,47.26
2018-06-19T20:35:36.735Z,48.20
2018-06-19T20:38:04.558Z,48.26
2018-06-19T20:40:32.238Z,48.07
2018-06-19T20:43:00.156Z,48.42
2018-06-19T20:45:27.834Z,48.58
2018-06-19T20:47:55.797Z,48.44
2018-06-19T20:50:23.619Z,48.92
2018-06-19T20:52:51.466Z,48.27
2018-06-19T20:55:19.296Z,49.17
2018-06-19T20:57:47.105Z,48.77
2018-06-19T21:00:14.851Z,48.59
2018-06-19T21:02:48.592Z,48.70
2018-06-19T21:05:16.530Z,48.90
2018-06-19T21:07:44.432Z,49.22
2018-06-19T21:10:12.218Z,49.55
2018-06-19T21:12:39.988Z,49.10
2018-06-19T21:15:07.853Z,49.22
2018-06-19T21:17:35.737Z,49.92
2018-06-19T21:20:03.539Z,49.22
2018-06-19T21:22:31.619Z,49.88
2018-06-19T21:24:59.614Z,49.42
2018-06-19T21:27:27.398Z,49.39
2018-06-19T21:29:55.357Z,50.07
2018-06-19T21:32:23.340Z,50.10
2018-06-19T21:34:51.177Z,49.91
2018-06-19T21:37:18.988Z,50.37
2018-06-19T21:39:46.862Z,49.86
2018-06-19T21:42:14.745Z,50.74
2018-06-19T21:44:42.498Z,50.58
2018-06-19T21:47:10.458Z,51.14
2018-06-19T21:49:38.433Z,50.71
2018-06-19T21:52:06.647Z,51.23
2018-06-19T21:54:34.515Z,50.64
2018-06-19T21:57:02.509Z,50.75
2018-06-19T21:59:30.296Z,50.93
2018-06-19T22:01:58.221Z,50.89
2018-06-19T22:04:26.865Z,51.46
2018-06-19T22:06:54.870Z,51.42
2018-06-19T22:09:25.904Z,51.54
2018-06-19T22:11:57.745Z,51.18
2018-06-19T22:14:27.808Z,51.15
2018-06-19T22:16:58.788Z,51.18
2018-06-19T22:19:29.643Z,51.79
2018-06-19T22:21:59.938Z,51.36
2018-06-19T22:24:31.715Z,51.60
2018-06-19T22:27:01.409Z,51.94
2018-06-19T22:29:29.625Z,52.05
2018-06-19T22:31:58.583Z,51.53
2018-06-19T22:34:27.574Z,51.97
2018-06-19T22:36:56.242Z,51.39
2018-06-19T22:39:24.043Z,52.14
2018-06-19T22:41:51.922Z,51.41
2018-06-19T22:44:19.899Z,52.19
2018-06-19T22:46:47.818Z,52.26
2018-06-19T22:49:15.662Z,52.27
2018-06-19T22:51:43.574Z,51.89
2018-06-19T22:54:11.464Z,52.27
2018-06-19T22:56:39.346Z,51.65
2018-06-19T22:59:07.213Z,52.24
2018-06-19T23:01:35.278Z,52.35
2018-06-19T23:04:03.176Z,51.66
2018-06-19T23:06:31.129Z,52.21
2018-06-19T23:08:59.032Z,52.41
2018-06-19T23:11:26.890Z,51.77
2018-06-19T23:13:54.704Z,52.44
2018-06-19T23:16:22.596Z,52.35
2018-06-19T23:18:50.452Z,52.48
2018-06-19T23:21:18.345Z,52.01
2018-06-19T23:23:46.337Z,52.13
2018-06-19T23:26:14.188Z,51.91
2018-06-19T23:28:41.943Z,52.21
2018-06-19T23:31:09.865Z,51.82
2018-06-19T23:33:37.709Z,52.54
2018-06-19T23:36:05.572Z,52.00
2018-06-19T23:38:33.405Z,52.03
2018-06-19T23:41:01.169Z,52.32
2018-06-19T23:43:29.103Z,51.95
2018-06-19T23:45:57.012Z,52.05
2018-06-19T23:48:24.959Z,52.31
2018-06-19T23:50:52.805Z,52.80
2018-06-19T23:53:20.649Z,52.66
2018-06-19T23:55:48.413Z,52.68
2018-06-19T23:58:16.409Z,52.78
